sensor_id;sensor_type;location;lat;lon;timestamp;P1;durP1;ratioP1;P2;durP2;ratioP2
29210;SDS011;16250;49.932;10.980;2022-12-24T00:01:46;14.20;;;13.70;;
29210;SDS011;16250;49.932;10.980;2022-12-24T00:04:11;15.57;;;14.98;;
29210;SDS011;16250;49.932;10.980;2022-12-24T00:06:37;15.18;;;14.68;;
29210;SDS011;16250;49.932;10.980;2022-12-24T00:09:02;14.93;;;14.43;;
29210;SDS011;16250;49.932;10.980;2022-12-24T00:11:28;14.95;;;14.45;;
29210;SDS011;16250;49.932;10.980;2022-12-24T00:13:54;15.93;;;15.32;;
29210;SDS011;16250;49.932;10.980;2022-12-24T00:16:19;17.23;;;16.63;;
29210;SDS011;16250;49.932;10.980;2022-12-24T00:18:45;15.90;;;15.30;;
29210;SDS011;16250;49.932;10.980;2022-12-24T00:21:11;16.55;;;15.95;;
29210;SDS011;16250;49.932;10.980;2022-12-24T00:23:36;15.13;;;14.63;;
29210;SDS011;16250;49.932;10.980;2022-12-24T00:26:02;17.38;;;16.77;;
29210;SDS011;16250;49.932;10.980;2022-12-24T00:28:27;17.75;;;17.15;;
29210;SDS011;16250;49.932;10.980;2022-12-24T00:30:53;16.00;;;15.40;;
29210;SDS011;16250;49.932;10.980;2022-12-24T00:33:18;16.60;;;16.00;;
29210;SDS011;16250;49.932;10.980;2022-12-24T00:35:48;15.60;;;15.00;;
29210;SDS011;16250;49.932;10.980;2022-12-24T00:38:14;15.95;;;15.35;;
29210;SDS011;16250;49.932;10.980;2022-12-24T00:40:40;16.00;;;15.40;;
29210;SDS011;16250;49.932;10.980;2022-12-24T00:43:05;10.07;;;9.73;;
29210;SDS011;16250;49.932;10.980;2022-12-24T00:45:31;11.30;;;10.90;;
29210;SDS011;16250;49.932;10.980;2022-12-24T00:47:56;9.77;;;9.48;;
29210;SDS011;16250;49.932;10.980;2022-12-24T00:50:22;10.50;;;10.10;;
29210;SDS011;16250;49.932;10.980;2022-12-24T00:52:48;7.63;;;7.35;;
29210;SDS011;16250;49.932;10.980;2022-12-24T00:55:13;5.68;;;5.47;;
29210;SDS011;16250;49.932;10.980;2022-12-24T00:57:39;6.95;;;6.72;;
29210;SDS011;16250;49.932;10.980;2022-12-24T01:00:05;7.55;;;7.25;;
29210;SDS011;16250;49.932;10.980;2022-12-24T01:02:31;6.70;;;6.50;;
29210;SDS011;16250;49.932;10.980;2022-12-24T01:04:56;4.32;;;4.20;;
29210;SDS011;16250;49.932;10.980;2022-12-24T01:07:34;4.80;;;4.65;;
29210;SDS011;16250;49.932;10.980;2022-12-24T01:10:01;3.15;;;3.05;;
29210;SDS011;16250;49.932;10.980;2022-12-24T01:12:27;4.30;;;4.20;;
29210;SDS011;16250;49.932;10.980;2022-12-24T01:14:53;5.43;;;5.22;;
29210;SDS011;16250;49.932;10.980;2022-12-24T01:17:18;4.03;;;3.92;;
29210;SDS011;16250;49.932;10.980;2022-12-24T01:19:44;4.50;;;4.30;;
29210;SDS011;16250;49.932;10.980;2022-12-24T01:22:09;4.72;;;4.53;;
29210;SDS011;16250;49.932;10.980;2022-12-24T01:24:35;7.38;;;5.25;;
29210;SDS011;16250;49.932;10.980;2022-12-24T01:27:00;6.18;;;5.57;;
29210;SDS011;16250;49.932;10.980;2022-12-24T01:29:26;5.68;;;5.47;;
29210;SDS011;16250;49.932;10.980;2022-12-24T01:31:51;4.68;;;4.55;;
29210;SDS011;16250;49.932;10.980;2022-12-24T01:34:17;5.10;;;4.90;;
29210;SDS011;16250;49.932;10.980;2022-12-24T01:36:43;5.53;;;5.32;;
29210;SDS011;16250;49.932;10.980;2022-12-24T01:39:08;5.30;;;5.10;;
29210;SDS011;16250;49.932;10.980;2022-12-24T01:41:34;5.75;;;5.55;;
29210;SDS011;16250;49.932;10.980;2022-12-24T01:44:25;6.32;;;6.13;;
29210;SDS011;16250;49.932;10.980;2022-12-24T01:47:14;5.88;;;5.68;;
29210;SDS011;16250;49.932;10.980;2022-12-24T01:49:53;5.75;;;5.55;;
29210;SDS011;16250;49.932;10.980;2022-12-24T01:52:32;6.38;;;6.18;;
29210;SDS011;16250;49.932;10.980;2022-12-24T01:55:02;5.93;;;5.72;;
29210;SDS011;16250;49.932;10.980;2022-12-24T01:57:42;5.63;;;5.43;;
29210;SDS011;16250;49.932;10.980;2022-12-24T02:00:13;5.70;;;5.50;;
29210;SDS011;16250;49.932;10.980;2022-12-24T02:02:40;6.28;;;6.07;;
29210;SDS011;16250;49.932;10.980;2022-12-24T02:05:11;4.38;;;4.18;;
29210;SDS011;16250;49.932;10.980;2022-12-24T02:07:43;5.80;;;5.60;;
29210;SDS011;16250;49.932;10.980;2022-12-24T02:10:10;5.80;;;5.60;;
29210;SDS011;16250;49.932;10.980;2022-12-24T02:12:37;6.10;;;5.90;;
29210;SDS011;16250;49.932;10.980;2022-12-24T02:15:05;6.20;;;6.00;;
29210;SDS011;16250;49.932;10.980;2022-12-24T02:23:16;6.97;;;6.78;;
29210;SDS011;16250;49.932;10.980;2022-12-24T02:26:02;6.70;;;6.50;;
29210;SDS011;16250;49.932;10.980;2022-12-24T02:31:09;5.97;;;5.78;;
29210;SDS011;16250;49.932;10.980;2022-12-24T02:33:49;5.93;;;5.72;;
29210;SDS011;16250;49.932;10.980;2022-12-24T02:39:03;8.05;;;7.75;;
29210;SDS011;16250;49.932;10.980;2022-12-24T02:41:34;6.47;;;6.28;;
29210;SDS011;16250;49.932;10.980;2022-12-24T02:44:25;4.60;;;4.47;;
29210;SDS011;16250;49.932;10.980;2022-12-24T02:46:52;7.85;;;7.55;;
29210;SDS011;16250;49.932;10.980;2022-12-24T02:49:20;7.80;;;7.50;;
29210;SDS011;16250;49.932;10.980;2022-12-24T02:51:45;6.25;;;6.05;;
29210;SDS011;16250;49.932;10.980;2022-12-24T02:54:11;7.60;;;7.30;;
29210;SDS011;16250;49.932;10.980;2022-12-24T02:59:34;5.20;;;5.00;;
29210;SDS011;16250;49.932;10.980;2022-12-24T03:04:49;5.75;;;5.55;;
29210;SDS011;16250;49.932;10.980;2022-12-24T03:12:43;5.53;;;5.32;;
29210;SDS011;16250;49.932;10.980;2022-12-24T03:15:13;4.90;;;4.70;;
29210;SDS011;16250;49.932;10.980;2022-12-24T03:17:41;4.07;;;3.97;;
29210;SDS011;16250;49.932;10.980;2022-12-24T03:20:10;3.60;;;3.50;;
29210;SDS011;16250;49.932;10.980;2022-12-24T03:22:37;4.88;;;4.68;;
29210;SDS011;16250;49.932;10.980;2022-12-24T03:25:03;4.20;;;4.10;;
29210;SDS011;16250;49.932;10.980;2022-12-24T03:27:29;4.47;;;4.28;;
29210;SDS011;16250;49.932;10.980;2022-12-24T03:29:57;3.35;;;3.25;;
29210;SDS011;16250;49.932;10.980;2022-12-24T03:32:32;5.22;;;4.75;;
29210;SDS011;16250;49.932;10.980;2022-12-24T03:34:57;4.28;;;3.95;;
29210;SDS011;16250;49.932;10.980;2022-12-24T03:37:24;2.40;;;2.30;;
29210;SDS011;16250;49.932;10.980;2022-12-24T03:39:51;2.92;;;2.83;;
29210;SDS011;16250;49.932;10.980;2022-12-24T03:42:16;3.80;;;3.63;;
29210;SDS011;16250;49.932;10.980;2022-12-24T03:44:42;2.70;;;2.60;;
29210;SDS011;16250;49.932;10.980;2022-12-24T03:47:07;2.30;;;2.20;;
29210;SDS011;16250;49.932;10.980;2022-12-24T03:49:33;2.72;;;2.63;;
29210;SDS011;16250;49.932;10.980;2022-12-24T03:51:58;3.03;;;2.92;;
29210;SDS011;16250;49.932;10.980;2022-12-24T03:54:24;2.80;;;2.70;;
29210;SDS011;16250;49.932;10.980;2022-12-24T03:56:49;2.80;;;2.70;;
29210;SDS011;16250;49.932;10.980;2022-12-24T03:59:15;3.40;;;3.13;;
29210;SDS011;16250;49.932;10.980;2022-12-24T04:01:41;2.70;;;2.60;;
29210;SDS011;16250;49.932;10.980;2022-12-24T04:04:06;2.90;;;2.80;;
29210;SDS011;16250;49.932;10.980;2022-12-24T04:06:32;2.60;;;2.50;;
29210;SDS011;16250;49.932;10.980;2022-12-24T04:08:57;2.25;;;2.17;;
29210;SDS011;16250;49.932;10.980;2022-12-24T04:11:25;2.40;;;2.30;;
29210;SDS011;16250;49.932;10.980;2022-12-24T04:13:51;2.30;;;2.20;;
29210;SDS011;16250;49.932;10.980;2022-12-24T04:16:17;2.50;;;2.40;;
29210;SDS011;16250;49.932;10.980;2022-12-24T04:18:42;2.13;;;2.05;;
29210;SDS011;16250;49.932;10.980;2022-12-24T04:21:08;2.40;;;2.30;;
29210;SDS011;16250;49.932;10.980;2022-12-24T04:23:35;2.53;;;2.47;;
29210;SDS011;16250;49.932;10.980;2022-12-24T04:26:03;2.47;;;2.38;;
29210;SDS011;16250;49.932;10.980;2022-12-24T04:28:30;1.80;;;1.80;;
29210;SDS011;16250;49.932;10.980;2022-12-24T04:31:00;2.50;;;2.40;;
29210;SDS011;16250;49.932;10.980;2022-12-24T04:33:27;2.70;;;2.60;;
29210;SDS011;16250;49.932;10.980;2022-12-24T04:35:55;2.65;;;2.55;;
29210;SDS011;16250;49.932;10.980;2022-12-24T04:38:21;2.90;;;2.80;;
29210;SDS011;16250;49.932;10.980;2022-12-24T04:40:47;2.70;;;2.60;;
29210;SDS011;16250;49.932;10.980;2022-12-24T04:43:13;2.70;;;2.60;;
29210;SDS011;16250;49.932;10.980;2022-12-24T04:45:39;2.55;;;2.45;;
29210;SDS011;16250;49.932;10.980;2022-12-24T04:48:04;2.83;;;2.72;;
29210;SDS011;16250;49.932;10.980;2022-12-24T04:50:30;2.95;;;2.85;;
29210;SDS011;16250;49.932;10.980;2022-12-24T04:52:55;3.33;;;3.22;;
29210;SDS011;16250;49.932;10.980;2022-12-24T04:55:22;3.17;;;3.08;;
29210;SDS011;16250;49.932;10.980;2022-12-24T04:57:48;3.00;;;2.90;;
29210;SDS011;16250;49.932;10.980;2022-12-24T05:00:13;3.65;;;3.55;;
29210;SDS011;16250;49.932;10.980;2022-12-24T05:02:39;2.80;;;2.70;;
29210;SDS011;16250;49.932;10.980;2022-12-24T05:05:04;3.75;;;3.63;;
29210;SDS011;16250;49.932;10.980;2022-12-24T05:07:30;2.63;;;2.53;;
29210;SDS011;16250;49.932;10.980;2022-12-24T05:09:57;2.75;;;2.65;;
29210;SDS011;16250;49.932;10.980;2022-12-24T05:12:23;3.00;;;2.90;;
29210;SDS011;16250;49.932;10.980;2022-12-24T05:14:48;3.00;;;2.90;;
29210;SDS011;16250;49.932;10.980;2022-12-24T05:17:14;2.90;;;2.80;;
29210;SDS011;16250;49.932;10.980;2022-12-24T05:19:39;2.90;;;2.80;;
29210;SDS011;16250;49.932;10.980;2022-12-24T05:22:05;3.00;;;2.90;;
29210;SDS011;16250;49.932;10.980;2022-12-24T05:24:49;3.28;;;3.17;;
29210;SDS011;16250;49.932;10.980;2022-12-24T05:27:33;3.40;;;3.30;;
29210;SDS011;16250;49.932;10.980;2022-12-24T05:29:59;3.30;;;3.20;;
29210;SDS011;16250;49.932;10.980;2022-12-24T05:32:25;3.45;;;3.35;;
29210;SDS011;16250;49.932;10.980;2022-12-24T05:34:50;3.28;;;3.17;;
29210;SDS011;16250;49.932;10.980;2022-12-24T05:37:16;3.45;;;3.35;;
29210;SDS011;16250;49.932;10.980;2022-12-24T05:39:41;3.55;;;3.45;;
29210;SDS011;16250;49.932;10.980;2022-12-24T05:42:07;3.33;;;3.22;;
29210;SDS011;16250;49.932;10.980;2022-12-24T05:44:32;3.20;;;3.10;;
29210;SDS011;16250;49.932;10.980;2022-12-24T05:46:58;3.83;;;3.72;;
29210;SDS011;16250;49.932;10.980;2022-12-24T05:49:23;3.40;;;3.30;;
29210;SDS011;16250;49.932;10.980;2022-12-24T05:51:49;3.50;;;3.40;;
29210;SDS011;16250;49.932;10.980;2022-12-24T05:54:14;3.90;;;3.80;;
29210;SDS011;16250;49.932;10.980;2022-12-24T05:56:40;3.70;;;3.60;;
29210;SDS011;16250;49.932;10.980;2022-12-24T05:59:06;2.90;;;2.80;;
29210;SDS011;16250;49.932;10.980;2022-12-24T06:01:31;3.80;;;3.70;;
29210;SDS011;16250;49.932;10.980;2022-12-24T06:03:57;3.90;;;3.80;;
29210;SDS011;16250;49.932;10.980;2022-12-24T06:06:23;3.55;;;3.45;;
29210;SDS011;16250;49.932;10.980;2022-12-24T06:08:50;3.83;;;3.72;;
29210;SDS011;16250;49.932;10.980;2022-12-24T06:11:21;3.70;;;3.60;;
29210;SDS011;16250;49.932;10.980;2022-12-24T06:13:48;3.83;;;3.72;;
29210;SDS011;16250;49.932;10.980;2022-12-24T06:16:15;3.92;;;3.83;;
29210;SDS011;16250;49.932;10.980;2022-12-24T06:18:42;3.70;;;3.60;;
29210;SDS011;16250;49.932;10.980;2022-12-24T06:21:08;4.35;;;4.25;;
29210;SDS011;16250;49.932;10.980;2022-12-24T06:23:35;4.07;;;3.97;;
29210;SDS011;16250;49.932;10.980;2022-12-24T06:26:04;3.80;;;3.70;;
29210;SDS011;16250;49.932;10.980;2022-12-24T06:28:31;3.70;;;3.60;;
29210;SDS011;16250;49.932;10.980;2022-12-24T06:30:58;3.80;;;3.70;;
29210;SDS011;16250;49.932;10.980;2022-12-24T06:33:27;3.80;;;3.70;;
29210;SDS011;16250;49.932;10.980;2022-12-24T06:35:54;4.30;;;4.20;;
29210;SDS011;16250;49.932;10.980;2022-12-24T06:38:19;4.20;;;4.10;;
29210;SDS011;16250;49.932;10.980;2022-12-24T06:40:45;4.10;;;4.00;;
29210;SDS011;16250;49.932;10.980;2022-12-24T06:43:12;4.00;;;3.90;;
29210;SDS011;16250;49.932;10.980;2022-12-24T06:45:38;4.20;;;4.10;;
29210;SDS011;16250;49.932;10.980;2022-12-24T06:48:04;4.40;;;4.30;;
29210;SDS011;16250;49.932;10.980;2022-12-24T06:50:31;4.78;;;4.60;;
29210;SDS011;16250;49.932;10.980;2022-12-24T06:52:57;5.03;;;4.82;;
29210;SDS011;16250;49.932;10.980;2022-12-24T06:55:23;4.97;;;4.78;;
29210;SDS011;16250;49.932;10.980;2022-12-24T06:57:48;18.48;;;7.38;;
29210;SDS011;16250;49.932;10.980;2022-12-24T07:00:14;4.60;;;4.50;;
29210;SDS011;16250;49.932;10.980;2022-12-24T07:02:40;6.65;;;6.45;;
29210;SDS011;16250;49.932;10.980;2022-12-24T07:05:07;5.00;;;4.80;;
29210;SDS011;16250;49.932;10.980;2022-12-24T07:07:35;5.25;;;5.05;;
29210;SDS011;16250;49.932;10.980;2022-12-24T07:10:10;4.72;;;4.63;;
29210;SDS011;16250;49.932;10.980;2022-12-24T07:12:38;5.00;;;4.80;;
29210;SDS011;16250;49.932;10.980;2022-12-24T07:15:04;5.40;;;5.20;;
29210;SDS011;16250;49.932;10.980;2022-12-24T07:17:30;5.50;;;5.30;;
29210;SDS011;16250;49.932;10.980;2022-12-24T07:19:55;5.75;;;5.55;;
29210;SDS011;16250;49.932;10.980;2022-12-24T07:22:21;6.00;;;5.80;;
29210;SDS011;16250;49.932;10.980;2022-12-24T07:24:47;5.50;;;5.30;;
29210;SDS011;16250;49.932;10.980;2022-12-24T07:27:12;5.88;;;5.68;;
29210;SDS011;16250;49.932;10.980;2022-12-24T07:29:38;15.15;;;10.52;;
29210;SDS011;16250;49.932;10.980;2022-12-24T07:32:05;5.00;;;4.80;;
29210;SDS011;16250;49.932;10.980;2022-12-24T07:34:30;5.47;;;5.28;;
29210;SDS011;16250;49.932;10.980;2022-12-24T07:36:56;5.35;;;5.15;;
29210;SDS011;16250;49.932;10.980;2022-12-24T07:39:21;5.60;;;5.40;;
29210;SDS011;16250;49.932;10.980;2022-12-24T07:41:47;5.30;;;5.10;;
29210;SDS011;16250;49.932;10.980;2022-12-24T07:44:14;4.80;;;4.70;;
29210;SDS011;16250;49.932;10.980;2022-12-24T07:46:40;5.32;;;5.13;;
29210;SDS011;16250;49.932;10.980;2022-12-24T07:49:06;5.15;;;4.95;;
29210;SDS011;16250;49.932;10.980;2022-12-24T07:51:32;5.20;;;5.00;;
29210;SDS011;16250;49.932;10.980;2022-12-24T07:53:57;4.60;;;4.50;;
29210;SDS011;16250;49.932;10.980;2022-12-24T07:56:23;5.10;;;4.90;;
29210;SDS011;16250;49.932;10.980;2022-12-24T07:58:49;5.40;;;5.20;;
29210;SDS011;16250;49.932;10.980;2022-12-24T08:01:15;5.30;;;5.10;;
29210;SDS011;16250;49.932;10.980;2022-12-24T08:03:41;5.97;;;5.75;;
29210;SDS011;16250;49.932;10.980;2022-12-24T08:06:06;7.78;;;7.10;;
29210;SDS011;16250;49.932;10.980;2022-12-24T08:08:32;5.80;;;5.60;;
29210;SDS011;16250;49.932;10.980;2022-12-24T08:11:01;6.38;;;6.18;;
29210;SDS011;16250;49.932;10.980;2022-12-24T08:13:29;5.10;;;4.90;;
29210;SDS011;16250;49.932;10.980;2022-12-24T08:15:55;5.30;;;5.10;;
29210;SDS011;16250;49.932;10.980;2022-12-24T08:18:21;5.70;;;5.50;;
29210;SDS011;16250;49.932;10.980;2022-12-24T08:20:47;5.40;;;5.20;;
29210;SDS011;16250;49.932;10.980;2022-12-24T08:23:12;6.53;;;6.32;;
29210;SDS011;16250;49.932;10.980;2022-12-24T08:25:41;5.85;;;5.65;;
29210;SDS011;16250;49.932;10.980;2022-12-24T08:28:07;6.00;;;5.80;;
29210;SDS011;16250;49.932;10.980;2022-12-24T08:30:33;6.00;;;5.80;;
29210;SDS011;16250;49.932;10.980;2022-12-24T08:32:59;6.25;;;6.05;;
29210;SDS011;16250;49.932;10.980;2022-12-24T08:35:24;6.55;;;6.35;;
29210;SDS011;16250;49.932;10.980;2022-12-24T08:37:50;26.83;;;6.55;;
29210;SDS011;16250;49.932;10.980;2022-12-24T08:40:16;6.60;;;6.40;;
29210;SDS011;16250;49.932;10.980;2022-12-24T08:42:41;6.40;;;6.10;;
29210;SDS011;16250;49.932;10.980;2022-12-24T08:45:07;6.00;;;5.80;;
29210;SDS011;16250;49.932;10.980;2022-12-24T08:47:34;7.65;;;7.30;;
29210;SDS011;16250;49.932;10.980;2022-12-24T08:49:59;7.00;;;6.80;;
29210;SDS011;16250;49.932;10.980;2022-12-24T08:52:25;6.30;;;6.10;;
29210;SDS011;16250;49.932;10.980;2022-12-24T08:54:50;6.70;;;6.50;;
29210;SDS011;16250;49.932;10.980;2022-12-24T08:57:16;7.65;;;7.35;;
29210;SDS011;16250;49.932;10.980;2022-12-24T08:59:41;6.85;;;6.65;;
29210;SDS011;16250;49.932;10.980;2022-12-24T09:02:07;6.90;;;6.70;;
29210;SDS011;16250;49.932;10.980;2022-12-24T09:04:33;15.48;;;6.68;;
29210;SDS011;16250;49.932;10.980;2022-12-24T09:07:03;6.57;;;6.38;;
29210;SDS011;16250;49.932;10.980;2022-12-24T09:09:30;6.78;;;6.57;;
29210;SDS011;16250;49.932;10.980;2022-12-24T09:11:55;6.28;;;6.07;;
29210;SDS011;16250;49.932;10.980;2022-12-24T09:14:21;6.70;;;6.50;;
29210;SDS011;16250;49.932;10.980;2022-12-24T09:16:46;7.78;;;7.47;;
29210;SDS011;16250;49.932;10.980;2022-12-24T09:19:12;7.25;;;7.05;;
29210;SDS011;16250;49.932;10.980;2022-12-24T09:21:37;7.00;;;6.80;;
29210;SDS011;16250;49.932;10.980;2022-12-24T09:24:03;7.38;;;7.15;;
29210;SDS011;16250;49.932;10.980;2022-12-24T09:26:29;7.15;;;6.95;;
29210;SDS011;16250;49.932;10.980;2022-12-24T09:28:56;6.70;;;6.50;;
29210;SDS011;16250;49.932;10.980;2022-12-24T09:31:22;6.45;;;6.25;;
29210;SDS011;16250;49.932;10.980;2022-12-24T09:33:49;7.20;;;7.00;;
29210;SDS011;16250;49.932;10.980;2022-12-24T09:36:15;7.10;;;6.90;;
29210;SDS011;16250;49.932;10.980;2022-12-24T09:38:41;10.07;;;9.68;;
29210;SDS011;16250;49.932;10.980;2022-12-24T09:41:15;8.40;;;8.10;;
29210;SDS011;16250;49.932;10.980;2022-12-24T09:44:00;7.57;;;7.28;;
29210;SDS011;16250;49.932;10.980;2022-12-24T09:46:37;7.72;;;7.43;;
29210;SDS011;16250;49.932;10.980;2022-12-24T09:49:09;8.50;;;8.20;;
29210;SDS011;16250;49.932;10.980;2022-12-24T09:51:42;8.75;;;8.45;;
29210;SDS011;16250;49.932;10.980;2022-12-24T09:56:49;8.30;;;8.00;;
29210;SDS011;16250;49.932;10.980;2022-12-24T09:59:21;7.88;;;7.57;;
29210;SDS011;16250;49.932;10.980;2022-12-24T10:01:50;8.40;;;8.10;;
29210;SDS011;16250;49.932;10.980;2022-12-24T10:04:19;8.18;;;7.88;;
29210;SDS011;16250;49.932;10.980;2022-12-24T10:07:01;9.25;;;8.95;;
29210;SDS011;16250;49.932;10.980;2022-12-24T10:15:13;9.05;;;8.75;;
29210;SDS011;16250;49.932;10.980;2022-12-24T10:17:59;8.70;;;8.40;;
29210;SDS011;16250;49.932;10.980;2022-12-24T10:26:47;8.77;;;8.18;;
29210;SDS011;16250;49.932;10.980;2022-12-24T10:29:39;10.25;;;9.85;;
29210;SDS011;16250;49.932;10.980;2022-12-24T10:32:26;8.40;;;8.10;;
29210;SDS011;16250;49.932;10.980;2022-12-24T10:34:56;9.38;;;9.07;;
29210;SDS011;16250;49.932;10.980;2022-12-24T10:37:26;10.63;;;9.77;;
29210;SDS011;16250;49.932;10.980;2022-12-24T10:39:54;13.13;;;12.52;;
29210;SDS011;16250;49.932;10.980;2022-12-24T10:42:22;10.30;;;9.90;;
29210;SDS011;16250;49.932;10.980;2022-12-24T10:44:56;10.50;;;10.00;;
29210;SDS011;16250;49.932;10.980;2022-12-24T10:47:27;15.10;;;11.35;;
29210;SDS011;16250;49.932;10.980;2022-12-24T10:50:00;9.98;;;9.02;;
29210;SDS011;16250;49.932;10.980;2022-12-24T10:52:38;10.27;;;9.32;;
29210;SDS011;16250;49.932;10.980;2022-12-24T10:57:45;6.18;;;5.80;;
29210;SDS011;16250;49.932;10.980;2022-12-24T11:00:21;4.32;;;4.22;;
29210;SDS011;16250;49.932;10.980;2022-12-24T11:02:49;6.07;;;5.85;;
29210;SDS011;16250;49.932;10.980;2022-12-24T11:05:36;7.35;;;6.93;;
29210;SDS011;16250;49.932;10.980;2022-12-24T11:08:03;3.83;;;3.50;;
29210;SDS011;16250;49.932;10.980;2022-12-24T11:10:43;5.30;;;2.88;;
29210;SDS011;16250;49.932;10.980;2022-12-24T11:16:11;1.88;;;1.77;;
29210;SDS011;16250;49.932;10.980;2022-12-24T11:18:49;15.82;;;2.38;;
29210;SDS011;16250;49.932;10.980;2022-12-24T11:21:24;2.05;;;1.85;;
29210;SDS011;16250;49.932;10.980;2022-12-24T11:23:56;5.88;;;2.10;;
29210;SDS011;16250;49.932;10.980;2022-12-24T11:26:38;1.20;;;1.20;;
29210;SDS011;16250;49.932;10.980;2022-12-24T11:29:13;2.38;;;2.28;;
29210;SDS011;16250;49.932;10.980;2022-12-24T11:31:49;5.30;;;1.40;;
29210;SDS011;16250;49.932;10.980;2022-12-24T11:37:17;8.45;;;2.92;;
29210;SDS011;16250;49.932;10.980;2022-12-24T11:39:54;0.80;;;0.80;;
29210;SDS011;16250;49.932;10.980;2022-12-24T11:42:31;1.10;;;1.00;;
29210;SDS011;16250;49.932;10.980;2022-12-24T11:44:59;3.10;;;1.63;;
29210;SDS011;16250;49.932;10.980;2022-12-24T11:47:32;2.85;;;1.00;;
29210;SDS011;16250;49.932;10.980;2022-12-24T11:50:40;4.10;;;1.52;;
29210;SDS011;16250;49.932;10.980;2022-12-24T11:52:59;8.73;;;2.28;;
29210;SDS011;16250;49.932;10.980;2022-12-24T11:58:02;26.92;;;2.85;;
29210;SDS011;16250;49.932;10.980;2022-12-24T12:00:50;3.25;;;2.00;;
29210;SDS011;16250;49.932;10.980;2022-12-24T12:03:29;1.60;;;1.60;;
29210;SDS011;16250;49.932;10.980;2022-12-24T12:06:00;5.22;;;3.53;;
29210;SDS011;16250;49.932;10.980;2022-12-24T12:08:44;2.15;;;2.00;;
29210;SDS011;16250;49.932;10.980;2022-12-24T12:11:11;4.25;;;3.15;;
29210;SDS011;16250;49.932;10.980;2022-12-24T12:13:38;2.35;;;2.25;;
29210;SDS011;16250;49.932;10.980;2022-12-24T12:16:16;1.60;;;1.60;;
29210;SDS011;16250;49.932;10.980;2022-12-24T12:18:54;2.88;;;2.03;;
29210;SDS011;16250;49.932;10.980;2022-12-24T12:21:26;2.22;;;2.15;;
29210;SDS011;16250;49.932;10.980;2022-12-24T12:24:06;2.00;;;2.00;;
29210;SDS011;16250;49.932;10.980;2022-12-24T12:26:38;2.40;;;2.28;;
29210;SDS011;16250;49.932;10.980;2022-12-24T12:31:48;3.95;;;3.75;;
29210;SDS011;16250;49.932;10.980;2022-12-24T12:34:20;3.08;;;2.97;;
29210;SDS011;16250;49.932;10.980;2022-12-24T12:36:55;3.85;;;3.75;;
29210;SDS011;16250;49.932;10.980;2022-12-24T12:39:26;3.17;;;3.08;;
29210;SDS011;16250;49.932;10.980;2022-12-24T12:42:06;4.72;;;3.35;;
29210;SDS011;16250;49.932;10.980;2022-12-24T12:44:48;3.75;;;3.45;;
29210;SDS011;16250;49.932;10.980;2022-12-24T12:50:16;3.58;;;3.47;;
29210;SDS011;16250;49.932;10.980;2022-12-24T12:52:49;3.15;;;3.05;;
29210;SDS011;16250;49.932;10.980;2022-12-24T12:55:26;3.30;;;3.20;;
29210;SDS011;16250;49.932;10.980;2022-12-24T12:58:18;3.00;;;2.90;;
29210;SDS011;16250;49.932;10.980;2022-12-24T13:00:53;3.40;;;3.30;;
29210;SDS011;16250;49.932;10.980;2022-12-24T13:03:55;3.88;;;3.78;;
29210;SDS011;16250;49.932;10.980;2022-12-24T13:20:31;4.68;;;4.57;;
29210;SDS011;16250;49.932;10.980;2022-12-24T13:23:01;4.10;;;4.00;;
29210;SDS011;16250;49.932;10.980;2022-12-24T13:33:50;4.53;;;4.43;;
29210;SDS011;16250;49.932;10.980;2022-12-24T13:36:19;4.80;;;4.60;;
29210;SDS011;16250;49.932;10.980;2022-12-24T13:38:54;5.30;;;5.10;;
29210;SDS011;16250;49.932;10.980;2022-12-24T13:49:17;5.75;;;5.55;;
29210;SDS011;16250;49.932;10.980;2022-12-24T13:51:51;5.70;;;5.50;;
29210;SDS011;16250;49.932;10.980;2022-12-24T13:54:36;5.55;;;5.35;;
29210;SDS011;16250;49.932;10.980;2022-12-24T13:57:14;6.10;;;5.90;;
29210;SDS011;16250;49.932;10.980;2022-12-24T13:59:52;5.55;;;5.35;;
29210;SDS011;16250;49.932;10.980;2022-12-24T14:02:45;12.48;;;7.55;;
29210;SDS011;16250;49.932;10.980;2022-12-24T14:05:26;6.97;;;6.77;;
29210;SDS011;16250;49.932;10.980;2022-12-24T14:08:02;5.80;;;5.60;;
29210;SDS011;16250;49.932;10.980;2022-12-24T14:10:33;6.10;;;5.90;;
29210;SDS011;16250;49.932;10.980;2022-12-24T14:13:02;7.15;;;6.95;;
29210;SDS011;16250;49.932;10.980;2022-12-24T14:18:17;6.20;;;6.00;;
29210;SDS011;16250;49.932;10.980;2022-12-24T14:20:49;6.20;;;6.00;;
29210;SDS011;16250;49.932;10.980;2022-12-24T14:23:20;6.20;;;6.00;;
29210;SDS011;16250;49.932;10.980;2022-12-24T14:25:53;6.20;;;6.00;;
29210;SDS011;16250;49.932;10.980;2022-12-24T14:28:18;6.95;;;6.75;;
29210;SDS011;16250;49.932;10.980;2022-12-24T14:31:01;6.22;;;6.03;;
29210;SDS011;16250;49.932;10.980;2022-12-24T14:33:32;6.60;;;6.40;;
29210;SDS011;16250;49.932;10.980;2022-12-24T14:35:59;6.35;;;6.15;;
29210;SDS011;16250;49.932;10.980;2022-12-24T14:38:25;6.80;;;6.60;;
29210;SDS011;16250;49.932;10.980;2022-12-24T14:54:29;7.70;;;7.40;;
29210;SDS011;16250;49.932;10.980;2022-12-24T14:59:41;10.30;;;9.70;;
29210;SDS011;16250;49.932;10.980;2022-12-24T15:05:01;7.30;;;7.10;;
29210;SDS011;16250;49.932;10.980;2022-12-24T15:07:50;8.90;;;8.60;;
29210;SDS011;16250;49.932;10.980;2022-12-24T15:10:27;10.75;;;10.35;;
29210;SDS011;16250;49.932;10.980;2022-12-24T15:13:23;8.45;;;8.15;;
29210;SDS011;16250;49.932;10.980;2022-12-24T15:15:54;8.60;;;8.30;;
29210;SDS011;16250;49.932;10.980;2022-12-24T15:18:21;9.10;;;8.80;;
29210;SDS011;16250;49.932;10.980;2022-12-24T15:20:51;9.18;;;8.88;;
29210;SDS011;16250;49.932;10.980;2022-12-24T15:23:20;10.30;;;9.90;;
29210;SDS011;16250;49.932;10.980;2022-12-24T15:28:36;10.48;;;9.90;;
29210;SDS011;16250;49.932;10.980;2022-12-24T15:31:13;11.68;;;11.20;;
29210;SDS011;16250;49.932;10.980;2022-12-24T15:33:44;11.57;;;11.18;;
29210;SDS011;16250;49.932;10.980;2022-12-24T15:36:12;12.80;;;12.25;;
29210;SDS011;16250;49.932;10.980;2022-12-24T15:38:39;10.77;;;10.38;;
29210;SDS011;16250;49.932;10.980;2022-12-24T15:41:20;9.15;;;8.85;;
29210;SDS011;16250;49.932;10.980;2022-12-24T15:43:52;9.75;;;9.45;;
29210;SDS011;16250;49.932;10.980;2022-12-24T15:46:23;9.35;;;9.05;;
29210;SDS011;16250;49.932;10.980;2022-12-24T15:48:51;9.60;;;9.30;;
29210;SDS011;16250;49.932;10.980;2022-12-24T15:51:26;8.60;;;8.30;;
29210;SDS011;16250;49.932;10.980;2022-12-24T15:54:00;9.70;;;9.40;;
29210;SDS011;16250;49.932;10.980;2022-12-24T15:56:41;9.18;;;8.88;;
29210;SDS011;16250;49.932;10.980;2022-12-24T16:01:54;11.32;;;10.63;;
29210;SDS011;16250;49.932;10.980;2022-12-24T16:07:05;9.70;;;9.40;;
29210;SDS011;16250;49.932;10.980;2022-12-24T16:12:01;9.98;;;9.68;;
29210;SDS011;16250;49.932;10.980;2022-12-24T16:14:35;10.25;;;9.85;;
29210;SDS011;16250;49.932;10.980;2022-12-24T16:17:09;11.10;;;10.70;;
29210;SDS011;16250;49.932;10.980;2022-12-24T16:19:46;12.35;;;11.85;;
29210;SDS011;16250;49.932;10.980;2022-12-24T16:22:15;10.80;;;10.40;;
29210;SDS011;16250;49.932;10.980;2022-12-24T16:24:55;10.70;;;10.30;;
29210;SDS011;16250;49.932;10.980;2022-12-24T16:27:21;10.80;;;10.40;;
29210;SDS011;16250;49.932;10.980;2022-12-24T16:29:47;10.65;;;10.25;;
29210;SDS011;16250;49.932;10.980;2022-12-24T16:34:56;11.95;;;11.55;;
29210;SDS011;16250;49.932;10.980;2022-12-24T16:37:22;11.80;;;11.10;;
29210;SDS011;16250;49.932;10.980;2022-12-24T16:39:48;10.38;;;9.98;;
29210;SDS011;16250;49.932;10.980;2022-12-24T16:42:13;10.63;;;10.23;;
29210;SDS011;16250;49.932;10.980;2022-12-24T16:44:57;11.38;;;10.98;;